Time;durP1;ratioP1;P1;durP2;ratioP2;P2;SDS_P1;SDS_P2;PMS_P1;PMS_P2;Temp;Humidity;BMP_temperature;BMP_pressure;BME280_temperature;BME280_humidity;BME280_pressure;Samples;Min_cycle;Max_cycle;Signal;HPM_P1;HPM_P2
2022/09/22 00:02:41;;;;;;;6.43;4.20;;;;;;;12.27;73.88;102506.13;6152390;28;20791;-75
2022/09/22 00:06:07;;;;;;;4.70;2.93;;;;;;;12.14;74.84;102503.41;6153351;28;20227;-76
2022/09/22 00:09:28;;;;;;;5.10;3.10;;;;;;;12.20;74.72;102508.44;6130970;28;20234;-75
2022/09/22 00:12:49;;;;;;;7.13;4.47;;;;;;;12.12;74.22;102510.78;6148667;28;20230;-76
2022/09/22 00:16:12;;;;;;;5.63;3.77;;;;;;;12.18;74.37;102509.50;6153870;28;20238;-76
2022/09/22 00:19:36;;;;;;;3.53;3.23;;;;;;;12.08;74.99;102501.16;6149856;28;20239;-76
2022/09/22 00:22:58;;;;;;;4.73;4.03;;;;;;;12.06;75.45;102502.25;6148045;28;20235;-77
2022/09/22 00:26:22;;;;;;;3.77;3.37;;;;;;;12.02;75.02;102496.16;6150249;28;20631;-76
2022/09/22 00:29:43;;;;;;;4.73;3.60;;;;;;;11.97;76.09;102498.34;6155912;28;20226;-76
2022/09/22 00:33:04;;;;;;;4.67;3.73;;;;;;;12.01;75.23;102497.16;6156215;28;20827;-76
2022/09/22 00:36:27;;;;;;;4.43;2.90;;;;;;;11.99;75.24;102488.28;6154106;28;20505;-75
2022/09/22 00:39:52;;;;;;;5.37;4.10;;;;;;;11.93;74.75;102489.56;6149267;28;21243;-77
2022/09/22 00:43:15;;;;;;;4.03;3.03;;;;;;;11.69;76.07;102493.06;6146057;28;20235;-75
2022/09/22 00:46:39;;;;;;;5.57;3.77;;;;;;;11.66;77.05;102488.72;6155599;28;20234;-76
2022/09/22 00:50:06;;;;;;;7.67;3.33;;;;;;;11.73;76.76;102483.78;6153008;28;20848;-76
2022/09/22 00:53:30;;;;;;;5.83;2.60;;;;;;;11.73;76.09;102479.25;6152930;28;20243;-77
2022/09/22 00:56:57;;;;;;;6.30;3.60;;;;;;;11.72;75.99;102484.75;6152591;28;20227;-76
2022/09/22 01:00:19;;;;;;;6.43;3.33;;;;;;;11.50;77.08;102482.59;6158001;28;20231;-77
2022/09/22 01:03:41;;;;;;;6.60;2.97;;;;;;;11.64;76.29;102479.00;6157808;28;20258;-76
2022/09/22 01:07:04;;;;;;;4.13;2.70;;;;;;;11.64;76.41;102479.84;6157718;28;20226;-75
2022/09/22 01:10:26;;;;;;;4.90;3.20;;;;;;;11.54;76.32;102477.84;6150400;28;20257;-76
2022/09/22 01:14:01;;;;;;;5.57;2.93;;;;;;;11.47;76.25;102479.25;6157263;28;20617;-76
2022/09/22 01:17:33;;;;;;;6.80;4.50;;;;;;;11.44;76.81;102468.63;6154243;28;20678;-76
2022/09/22 01:21:18;;;;;;;3.37;3.07;;;;;;;11.41;77.43;102464.31;6154765;28;20313;-75
2022/09/22 01:24:48;;;;;;;5.07;4.37;;;;;;;11.42;76.59;102467.88;6156083;28;20810;-76
2022/09/22 01:28:42;;;;;;;5.27;3.60;;;;;;;11.39;76.28;102460.84;6139828;28;20226;-75
2022/09/22 01:32:09;;;;;;;4.50;3.57;;;;;;;11.32;77.50;102464.06;6156009;28;20234;-76
2022/09/22 01:35:33;;;;;;;5.00;3.50;;;;;;;11.38;77.11;102455.56;6154143;28;20325;-76
2022/09/22 01:39:06;;;;;;;5.83;3.10;;;;;;;11.10;77.68;102456.50;6142256;28;20233;-77
2022/09/22 01:42:30;;;;;;;4.63;3.63;;;;;;;11.18;77.93;102446.94;6147248;28;20234;-76
2022/09/22 01:45:53;;;;;;;6.47;4.77;;;;;;;11.09;78.05;102450.28;6154708;28;20238;-75
2022/09/22 01:49:18;;;;;;;4.67;3.40;;;;;;;11.06;78.23;102445.06;6156203;28;20234;-77
2022/09/22 01:52:41;;;;;;;4.90;3.50;;;;;;;11.07;78.34;102449.50;6158241;28;20237;-77
2022/09/22 01:56:07;;;;;;;5.57;4.07;;;;;;;11.11;78.00;102459.13;6151375;28;20231;-75
2022/09/22 01:59:30;;;;;;;3.97;2.67;;;;;;;11.07;79.03;102454.03;6151128;28;20234;-75
2022/09/22 02:02:57;;;;;;;3.67;2.97;;;;;;;11.05;78.58;102454.13;6152900;28;20226;-75
2022/09/22 02:06:25;;;;;;;6.63;3.30;;;;;;;11.06;78.34;102447.75;6155774;28;20314;-76
2022/09/22 02:09:48;;;;;;;7.00;3.80;;;;;;;11.04;79.09;102452.38;6151344;28;20247;-75
2022/09/22 02:13:09;;;;;;;4.77;3.20;;;;;;;11.05;78.04;102445.16;6144138;28;20253;-76
2022/09/22 02:16:31;;;;;;;7.77;4.17;;;;;;;10.92;79.28;102442.41;6157543;28;20238;-75
2022/09/22 02:19:52;;;;;;;5.63;3.17;;;;;;;10.80;80.34;102442.34;6154561;28;20305;-75
2022/09/22 02:23:14;;;;;;;5.23;3.90;;;;;;;10.92;79.00;102445.09;6151873;28;20238;-74
2022/09/22 02:26:36;;;;;;;4.93;3.90;;;;;;;10.99;78.73;102446.41;6162058;28;20253;-75
2022/09/22 02:30:04;;;;;;;3.77;3.23;;;;;;;10.99;78.30;102440.19;6160264;28;20227;-76
2022/09/22 02:33:27;;;;;;;3.03;2.83;;;;;;;10.81;79.82;102444.03;6165228;28;20253;-75
2022/09/22 02:36:57;;;;;;;5.40;3.90;;;;;;;10.89;79.56;102447.97;6157924;28;20632;-74
2022/09/22 02:40:27;;;;;;;6.70;3.50;;;;;;;10.93;78.58;102445.97;6160981;28;20624;-75
2022/09/22 02:43:53;;;;;;;3.30;2.73;;;;;;;10.79;78.71;102441.47;6158442;28;20550;-76
2022/09/22 02:47:19;;;;;;;3.33;2.63;;;;;;;10.78;78.98;102439.75;6164146;28;20238;-76
2022/09/22 02:50:42;;;;;;;5.10;3.10;;;;;;;10.82;79.08;102438.56;6156746;28;20238;-76
2022/09/22 02:54:03;;;;;;;4.13;3.30;;;;;;;10.82;79.51;102440.41;6158194;28;20230;-75
2022/09/22 02:57:25;;;;;;;4.10;2.80;;;;;;;10.75;79.02;102437.22;6161881;28;20250;-75
2022/09/22 03:00:46;;;;;;;4.30;2.53;;;;;;;10.78;78.70;102437.03;6158266;28;20238;-76
2022/09/22 03:04:07;;;;;;;3.83;3.50;;;;;;;10.76;79.31;102433.59;6160988;28;20317;-76
2022/09/22 03:07:28;;;;;;;4.60;4.20;;;;;;;10.76;79.27;102430.88;6162764;28;20234;-76
2022/09/22 03:10:49;;;;;;;4.87;3.00;;;;;;;10.69;79.32;102425.97;6162725;28;20234;-75
2022/09/22 03:14:11;;;;;;;5.40;3.77;;;;;;;10.63;79.22;102429.06;6157698;28;20234;-75
2022/09/22 03:17:33;;;;;;;6.13;2.77;;;;;;;10.69;79.70;102424.13;6162074;28;20539;-76
2022/09/22 03:20:53;;;;;;;3.17;2.90;;;;;;;10.58;79.83;102413.16;6155513;28;21035;-77
2022/09/22 03:24:14;;;;;;;4.13;2.73;;;;;;;10.55;80.87;102426.00;6159215;28;20222;-76
2022/09/22 03:27:35;;;;;;;4.30;2.70;;;;;;;10.47;81.00;102422.91;6162382;28;20258;-75
2022/09/22 03:31:01;;;;;;;6.33;4.07;;;;;;;10.46;80.60;102422.03;6160051;28;20222;-75
2022/09/22 03:34:22;;;;;;;7.97;4.37;;;;;;;10.44;81.17;102424.84;6158260;28;20632;-75
2022/09/22 03:37:43;;;;;;;5.67;3.07;;;;;;;10.44;80.51;102421.28;6161565;28;20723;-76
2022/09/22 03:41:04;;;;;;;4.83;3.43;;;;;;;10.42;80.45;102417.81;6158772;28;20667;-75
2022/09/22 03:44:25;;;;;;;3.53;2.83;;;;;;;10.28;80.81;102421.38;6156933;28;20329;-75
2022/09/22 03:47:48;;;;;;;2.57;2.37;;;;;;;10.40;80.58;102412.53;6159906;28;20258;-75
2022/09/22 03:51:09;;;;;;;3.27;2.83;;;;;;;10.39;80.50;102412.59;6152874;28;20235;-76
2022/09/22 03:58:00;;;;;;;4.00;3.60;;;;;;;10.32;80.49;102411.28;6151002;28;20214;-76
2022/09/22 04:01:21;;;;;;;31.83;21.80;;;;;;;10.33;80.30;102404.91;6148863;28;20226;-75
2022/09/22 04:04:44;;;;;;;5.30;4.80;;;;;;;10.22;80.96;102410.13;6154342;28;20223;-75
2022/09/22 04:08:04;;;;;;;4.90;4.03;;;;;;;10.22;80.68;102410.97;6156871;28;20250;-76
2022/09/22 04:11:25;;;;;;;4.70;3.30;;;;;;;10.20;80.70;102412.91;6153020;28;20239;-75
2022/09/22 04:14:46;;;;;;;4.40;3.80;;;;;;;10.24;80.70;102400.97;6150473;28;20337;-75
2022/09/22 04:18:07;;;;;;;3.30;2.97;;;;;;;10.21;80.08;102403.88;6153757;28;20247;-75
2022/09/22 04:21:30;;;;;;;3.43;2.67;;;;;;;10.19;80.63;102399.53;6149435;28;20718;-75
2022/09/22 04:24:50;;;;;;;2.80;2.60;;;;;;;10.16;80.67;102399.72;6154682;28;20227;-75
2022/09/22 04:28:11;;;;;;;4.53;3.47;;;;;;;10.09;81.17;102401.91;6156849;28;20226;-76
2022/09/22 04:31:32;;;;;;;4.50;3.07;;;;;;;10.01;81.04;102395.28;6151781;28;20229;-76
2022/09/22 04:34:53;;;;;;;6.57;3.23;;;;;;;9.95;81.18;102399.19;6151360;28;20230;-75
2022/09/22 04:38:16;;;;;;;3.77;3.43;;;;;;;9.99;81.03;102389.13;6154153;28;20223;-75
2022/09/22 04:41:36;;;;;;;7.37;2.93;;;;;;;10.01;80.80;102393.41;6150496;28;20238;-75
2022/09/22 04:45:00;;;;;;;5.40;3.43;;;;;;;9.90;81.48;102397.75;6144645;28;20223;-75
2022/09/22 04:48:21;;;;;;;2.53;2.33;;;;;;;9.89;81.46;102404.97;6147887;28;20235;-76
2022/09/22 04:51:42;;;;;;;4.67;2.60;;;;;;;9.85;81.37;102406.09;6130699;28;20773;-75
2022/09/22 04:55:05;;;;;;;4.83;2.63;;;;;;;9.86;80.64;102396.22;6143729;28;20238;-75
2022/09/22 04:58:26;;;;;;;3.27;2.97;;;;;;;9.88;80.78;102392.47;6147718;28;20243;-77
2022/09/22 05:01:47;;;;;;;4.63;3.23;;;;;;;9.85;81.20;102387.25;6144984;28;20311;-76
2022/09/22 05:05:08;;;;;;;6.27;3.50;;;;;;;9.87;81.11;102397.94;6145760;28;20215;-76
2022/09/22 05:08:29;;;;;;;4.10;2.90;;;;;;;9.89;81.16;102393.34;6144875;28;20239;-75
2022/09/22 05:11:52;;;;;;;4.20;2.40;;;;;;;9.96;81.15;102400.06;6145938;28;20226;-76
2022/09/22 05:15:14;;;;;;;4.47;2.50;;;;;;;9.83;81.08;102397.25;6144209;28;20234;-76
2022/09/22 05:18:35;;;;;;;2.63;2.07;;;;;;;9.85;80.91;102410.63;6150299;28;20235;-76
2022/09/22 05:21:56;;;;;;;3.60;3.00;;;;;;;9.80;83.09;102407.38;6154503;28;20391;-75
2022/09/22 05:25:19;;;;;;;21.60;17.03;;;;;;;9.81;81.84;102401.88;6150288;28;20682;-77
2022/09/22 05:28:41;;;;;;;8.27;6.40;;;;;;;9.91;81.40;102411.13;6148021;28;20254;-76
2022/09/22 05:32:02;;;;;;;3.17;2.60;;;;;;;9.98;81.14;102411.59;6157701;28;20242;-74
2022/09/22 05:35:24;;;;;;;4.43;4.03;;;;;;;10.03;80.42;102405.00;6155224;28;20331;-76
2022/09/22 05:38:45;;;;;;;3.37;2.77;;;;;;;10.03;80.83;102409.50;6142653;28;20289;-74
2022/09/22 05:42:07;;;;;;;4.37;3.10;;;;;;;10.14;80.83;102412.41;6146014;28;20230;-74
2022/09/22 05:45:29;;;;;;;3.93;2.37;;;;;;;10.15;80.70;102409.66;6139600;28;20243;-83
2022/09/22 05:48:49;;;;;;;3.33;2.43;;;;;;;10.15;80.71;102409.66;6146675;28;20277;-76
2022/09/22 05:52:11;;;;;;;4.63;3.77;;;;;;;10.11;80.37;102416.19;6139592;28;20677;-75
2022/09/22 05:55:32;;;;;;;4.53;2.83;;;;;;;10.25;79.78;102409.91;6142826;28;20230;-78
2022/09/22 05:58:54;;;;;;;4.80;2.10;;;;;;;10.21;80.22;102411.94;6146360;28;20246;-76
2022/09/22 06:02:17;;;;;;;7.57;3.40;;;;;;;10.24;80.23;102414.44;6152124;28;20536;-80
2022/09/22 06:05:38;;;;;;;2.70;2.50;;;;;;;10.39;79.78;102415.31;6156445;28;20226;-80
2022/09/22 06:08:59;;;;;;;3.10;2.80;;;;;;;10.35;80.06;102406.56;6153542;28;20226;-73
2022/09/22 06:12:20;;;;;;;7.67;2.70;;;;;;;10.08;80.91;102418.16;6153206;28;20231;-74
2022/09/22 06:15:46;;;;;;;6.97;3.00;;;;;;;10.25;80.21;102409.91;6158719;28;20325;-74
2022/09/22 06:19:09;;;;;;;7.07;2.77;;;;;;;10.34;80.39;102409.34;6154431;28;20276;-78
2022/09/22 06:22:30;;;;;;;13.90;2.83;;;;;;;10.46;79.48;102408.56;6152768;28;20256;-82
2022/09/22 06:25:57;;;;;;;2.43;2.23;;;;;;;10.44;80.01;102408.69;6145381;28;20309;-82
2022/09/22 06:29:18;;;;;;;4.30;2.30;;;;;;;10.56;79.68;102411.53;6158242;28;20231;-82
2022/09/22 06:32:42;;;;;;;4.07;2.23;;;;;;;10.55;79.65;102417.91;6157562;28;20222;-86
2022/09/22 06:36:09;;;;;;;6.37;3.40;;;;;;;10.74;78.70;102416.63;6150479;28;20223;-81
2022/09/22 06:39:29;;;;;;;6.07;2.50;;;;;;;10.87;79.10;102422.94;6158978;28;20396;-79
2022/09/22 06:42:56;;;;;;;5.77;3.37;;;;;;;10.43;80.09;102414.13;6154633;28;20218;-77
2022/09/22 06:46:19;;;;;;;8.97;3.83;;;;;;;10.89;78.55;102422.88;6153878;28;20222;-78
2022/09/22 06:49:41;;;;;;;5.77;3.93;;;;;;;11.10;78.16;102419.59;6147200;28;20251;-77
2022/09/22 06:53:05;;;;;;;6.73;2.57;;;;;;;11.21;77.94;102418.88;6149655;28;20329;-78
2022/09/22 06:56:28;;;;;;;5.30;3.10;;;;;;;11.36;76.77;102430.50;6140466;28;20238;-75
2022/09/22 06:59:49;;;;;;;7.27;3.30;;;;;;;11.40;77.72;102426.63;6158203;28;20230;-80
2022/09/22 07:03:18;;;;;;;4.13;3.53;;;;;;;11.54;76.61;102430.09;6154573;28;20676;-80
2022/09/22 07:06:42;;;;;;;3.37;2.57;;;;;;;11.70;76.22;102432.69;6136164;28;20328;-82
2022/09/22 07:10:05;;;;;;;5.07;2.90;;;;;;;11.80;76.27;102434.66;6149232;28;20259;-85
2022/09/22 07:13:28;;;;;;;20.77;17.27;;;;;;;11.94;76.61;102430.97;6155444;28;20242;-76
2022/09/22 07:16:54;;;;;;;7.90;6.03;;;;;;;11.98;75.04;102432.47;6149730;28;20231;-87
2022/09/22 07:20:16;;;;;;;11.47;5.40;;;;;;;12.00;75.57;102431.41;6155705;28;20235;-77
2022/09/22 07:23:39;;;;;;;5.10;3.00;;;;;;;12.14;75.59;102426.88;6151478;28;20226;-75
2022/09/22 07:27:05;;;;;;;5.53;2.70;;;;;;;12.22;75.41;102425.38;6154250;28;20230;-81
2022/09/22 07:30:27;;;;;;;3.13;2.77;;;;;;;12.40;74.41;102423.16;6135809;28;20254;-77
2022/09/22 07:33:48;;;;;;;5.30;2.83;;;;;;;12.48;74.46;102424.34;6139234;28;20227;-84
2022/09/22 07:37:10;;;;;;;4.57;2.33;;;;;;;12.56;74.38;102423.78;6146577;28;20655;-76
2022/09/22 07:40:32;;;;;;;3.30;2.67;;;;;;;12.74;73.94;102425.19;6140891;28;20272;-81
2022/09/22 07:43:56;;;;;;;4.03;2.97;;;;;;;12.87;72.51;102425.16;6156172;28;20313;-77
2022/09/22 07:48:34;;;;;;;3.40;3.10;;;;;;;12.83;73.20;102417.25;6153009;28;20235;-76
2022/09/22 07:50:59;;;;;;;5.73;2.47;;;;;;;13.05;72.22;102421.09;6140883;28;20239;-84
2022/09/22 07:54:20;;;;;;;8.47;3.37;;;;;;;13.12;72.52;102417.81;6147586;28;20231;-75
2022/09/22 07:57:41;;;;;;;3.20;3.00;;;;;;;13.12;72.27;102423.22;6152919;28;20574;-79
2022/09/22 08:01:11;;;;;;;5.43;3.77;;;;;;;13.32;71.91;102413.63;6146955;28;20624;-82
2022/09/22 08:04:33;;;;;;;5.17;3.30;;;;;;;13.45;71.20;102418.00;6145722;28;20667;-83
2022/09/22 08:07:57;;;;;;;6.47;4.80;;;;;;;13.51;70.95;102422.94;6145873;28;20222;-81
2022/09/22 08:11:20;;;;;;;9.67;4.37;;;;;;;13.69;70.04;102417.94;6142490;28;20242;-77
2022/09/22 08:14:41;;;;;;;3.87;3.23;;;;;;;13.93;69.11;102410.63;6142978;28;20261;-77
2022/09/22 08:18:03;;;;;;;6.10;3.50;;;;;;;13.91;68.96;102411.72;6151471;28;20235;-80
2022/09/22 08:21:24;;;;;;;4.40;2.90;;;;;;;14.08;68.75;102417.53;6154560;28;20333;-77
2022/09/22 08:24:45;;;;;;;4.50;3.10;;;;;;;14.24;68.39;102409.06;6103042;28;20235;-83
2022/09/22 08:28:06;;;;;;;5.03;3.57;;;;;;;14.51;67.79;102409.59;6141095;28;20571;-78
2022/09/22 08:31:27;;;;;;;5.00;3.57;;;;;;;14.69;67.52;102413.53;6136898;28;20234;-81
2022/09/22 08:34:50;;;;;;;7.23;4.30;;;;;;;14.77;65.95;102412.91;6156016;28;20226;-78
2022/09/22 08:38:11;;;;;;;4.50;4.10;;;;;;;14.74;66.13;102421.28;6155510;28;20517;-78
2022/09/22 08:41:43;;;;;;;8.43;4.80;;;;;;;14.72;65.97;102418.72;6154980;28;20239;-80
2022/09/22 08:45:08;;;;;;;6.37;5.33;;;;;;;14.90;65.64;102425.34;6152768;28;20230;-91
2022/09/22 08:52:19;;;;;;;4.07;3.33;;;;;;;15.13;64.14;102424.31;6139623;28;20230;-82
2022/09/22 08:55:47;;;;;;;6.30;4.07;;;;;;;15.17;62.09;102424.91;6132190;28;20246;-88
2022/09/22 08:59:15;;;;;;;7.47;3.00;;;;;;;15.17;61.40;102417.63;6132131;28;20609;-80
2022/09/22 09:02:41;;;;;;;6.67;3.60;;;;;;;15.13;60.61;102423.44;6136625;28;20242;-83
2022/09/22 09:06:10;;;;;;;5.27;3.30;;;;;;;15.39;60.60;102419.41;6156454;28;20238;-79
2022/09/22 09:09:50;;;;;;;4.03;3.20;;;;;;;15.57;58.47;102423.31;6154021;28;20233;-87
2022/09/22 09:13:25;;;;;;;5.23;3.00;;;;;;;15.72;57.68;102418.41;6151784;28;20246;-88
2022/09/22 09:16:52;;;;;;;6.30;1.93;;;;;;;15.73;55.29;102421.00;6156606;28;22220;-85
2022/09/22 09:20:17;;;;;;;3.13;1.80;;;;;;;15.80;54.53;102432.22;6138095;28;20640;-80
2022/09/22 09:23:45;;;;;;;7.67;2.17;;;;;;;15.83;54.76;102416.47;6159079;28;20507;-82
2022/09/22 09:27:18;;;;;;;2.90;1.60;;;;;;;16.22;52.25;102423.06;6162033;28;20226;-81
2022/09/22 09:30:44;;;;;;;2.67;1.60;;;;;;;16.25;51.97;102419.22;6150801;28;20234;-78
2022/09/22 09:34:07;;;;;;;2.10;1.20;;;;;;;16.10;52.57;102412.38;6146672;28;20234;-86
2022/09/22 09:37:30;;;;;;;2.17;1.77;;;;;;;16.14;52.97;102413.84;6117082;28;20463;-80
2022/09/22 09:40:58;;;;;;;3.27;1.57;;;;;;;16.43;52.30;102409.41;6146066;28;20230;-72
2022/09/22 09:44:26;;;;;;;7.40;1.97;;;;;;;16.56;50.77;102410.06;6151205;28;20765;-82
2022/09/22 09:48:02;;;;;;;1.93;1.73;;;;;;;15.98;52.33;102408.84;6144946;28;20241;-75
2022/09/22 09:51:23;;;;;;;1.83;1.53;;;;;;;16.48;53.74;102407.16;6132454;28;20609;-75
2022/09/22 09:54:46;;;;;;;2.27;2.07;;;;;;;17.14;52.70;102409.22;6139558;28;20271;-73
2022/09/22 09:58:09;;;;;;;3.40;2.27;;;;;;;17.20;51.37;102400.47;6139343;28;20238;-79
2022/09/22 10:01:31;;;;;;;2.60;1.57;;;;;;;17.20;52.67;102403.22;6140630;28;20231;-80
2022/09/22 10:04:54;;;;;;;1.37;1.27;;;;;;;17.58;51.29;102398.81;6143929;28;20231;-71
2022/09/22 10:08:19;;;;;;;2.00;1.13;;;;;;;17.42;50.98;102391.16;6151044;28;20238;-72
2022/09/22 10:11:40;;;;;;;2.77;1.37;;;;;;;18.14;48.63;102376.03;6151348;28;20226;-79
2022/09/22 10:15:01;;;;;;;2.30;1.35;;;;;;;18.69;46.26;102387.88;6149330;28;20226;-76
2022/09/22 10:18:34;;;;;;;3.30;1.98;;;;;;;19.22;47.23;102381.63;6137454;28;20258;-78
2022/09/22 10:22:17;;;;;;;3.10;2.05;;;;;;;19.92;44.52;102377.00;6141719;28;20843;-76
2022/09/22 10:25:38;;;;;;;1.15;0.80;;;;;;;19.36;45.10;102378.41;6128838;28;20246;-77
2022/09/22 10:29:23;;;;;;;2.78;1.20;;;;;;;21.11;41.80;102370.63;6149900;28;20238;-80
2022/09/22 10:33:04;;;;;;;2.60;1.88;;;;;;;24.07;36.15;102361.44;6153321;28;20687;-78
2022/09/22 10:36:29;;;;;;;1.90;1.40;;;;;;;26.79;28.83;102356.41;6148765;28;20231;-80
2022/09/22 10:39:52;;;;;;;1.10;0.65;;;;;;;28.98;26.81;102353.22;6149156;28;20238;-80
2022/09/22 10:43:25;;;;;;;1.95;0.82;;;;;;;31.46;23.91;102345.19;6152548;28;20267;-78
2022/09/22 10:47:20;;;;;;;0.80;0.52;;;;;;;31.20;21.12;102344.72;6152007;28;20238;-76
2022/09/22 10:50:56;;;;;;;0.60;0.40;;;;;;;29.03;23.09;102348.72;6161198;28;20321;-80
2022/09/22 10:54:40;;;;;;;4.72;1.48;;;;;;;30.95;22.71;102336.50;6153505;28;20234;-82
2022/09/22 10:58:29;;;;;;;2.80;1.95;;;;;;;32.93;20.00;102339.25;6151154;28;20258;-78
2022/09/22 11:02:07;;;;;;;0.40;0.40;;;;;;;30.02;20.58;102341.38;6155107;28;20238;-76
2022/09/22 11:13:18;;;;;;;2.08;0.82;;;;;;;30.69;20.60;102329.31;6154784;28;20234;-75
2022/09/22 11:16:53;;;;;;;1.02;0.93;;;;;;;32.22;20.47;102328.44;6151012;28;20325;-75
2022/09/22 11:20:28;;;;;;;3.47;0.70;;;;;;;32.16;19.98;102328.56;6144290;28;20235;-78
2022/09/22 11:24:05;;;;;;;2.72;1.08;;;;;;;32.32;19.89;102333.41;6140782;28;21270;-79
2022/09/22 11:27:38;;;;;;;2.50;1.08;;;;;;;29.33;23.28;102326.75;6151340;28;20444;-76
2022/09/22 11:30:59;;;;;;;1.05;0.60;;;;;;;30.18;22.56;102319.63;6149028;28;20751;-77
2022/09/22 11:34:41;;;;;;;1.08;1.08;;;;;;;32.90;19.21;102313.72;6150873;28;20230;-73
2022/09/22 11:38:20;;;;;;;0.70;0.65;;;;;;;33.18;20.13;102310.97;6138036;28;20234;-76
2022/09/22 11:41:44;;;;;;;0.98;0.85;;;;;;;29.95;22.81;102314.72;6147033;28;20250;-76
2022/09/22 11:45:19;;;;;;;3.83;0.85;;;;;;;30.16;22.05;102307.88;6151696;28;20561;-77
2022/09/22 11:48:55;;;;;;;1.08;0.55;;;;;;;25.82;28.30;102310.47;6150271;28;20527;-76
2022/09/22 11:52:29;;;;;;;1.35;0.60;;;;;;;31.29;21.54;102304.28;6156821;28;20239;-72
2022/09/22 11:56:05;;;;;;;2.47;0.98;;;;;;;26.80;27.60;102298.09;6155630;28;20529;-73
2022/09/22 11:59:37;;;;;;;1.20;1.10;;;;;;;23.82;32.69;102307.59;6154491;28;20259;-77
2022/09/22 12:03:04;;;;;;;4.25;1.20;;;;;;;21.80;36.21;102301.50;6154230;28;20275;-80
2022/09/22 12:06:31;;;;;;;1.63;0.73;;;;;;;25.71;30.73;102295.28;6153226;28;20255;-83
2022/09/22 12:09:56;;;;;;;1.98;0.65;;;;;;;29.23;25.51;102285.56;6157815;28;20226;-81
2022/09/22 12:13:20;;;;;;;2.20;1.17;;;;;;;30.79;24.23;102284.22;6127226;28;20234;-88
2022/09/22 12:16:54;;;;;;;3.35;0.73;;;;;;;27.33;27.33;102281.56;6155378;28;20234;-87
2022/09/22 12:20:33;;;;;;;4.00;1.13;;;;;;;30.14;23.61;102271.06;6145594;28;20234;-82
2022/09/22 12:23:56;;;;;;;1.45;0.85;;;;;;;33.82;20.20;102267.59;6158637;28;20340;-86
2022/09/22 12:27:21;;;;;;;0.70;0.63;;;;;;;33.17;20.11;102258.91;6157541;28;20592;-81
2022/09/22 12:30:52;;;;;;;1.27;0.88;;;;;;;31.94;21.92;102264.13;6128495;28;20291;-82
2022/09/22 12:34:17;;;;;;;0.57;0.57;;;;;;;32.88;20.86;102255.28;6147221;28;20226;-82
2022/09/22 12:37:40;;;;;;;1.00;0.50;;;;;;;33.73;19.60;102246.75;6156571;28;20226;-83
2022/09/22 12:41:03;;;;;;;1.25;1.02;;;;;;;29.11;23.76;102253.13;6154730;28;20246;-77
2022/09/22 12:44:26;;;;;;;0.77;0.77;;;;;;;28.48;24.52;102254.97;6147355;28;20235;-76
2022/09/22 12:47:50;;;;;;;0.95;0.85;;;;;;;30.95;22.38;102235.34;6137967;28;20223;-78
2022/09/22 12:51:29;;;;;;;0.50;0.50;;;;;;;32.27;20.92;102243.94;6149150;28;20587;-86
2022/09/22 12:54:51;;;;;;;2.63;1.15;;;;;;;27.65;26.67;102248.34;6157241;28;20509;-83
2022/09/22 12:58:43;;;;;;;2.47;1.08;;;;;;;30.36;24.02;102233.34;6153658;28;20231;-77
2022/09/22 13:02:17;;;;;;;3.50;1.17;;;;;;;27.36;27.65;102234.09;6142214;28;20235;-77
2022/09/22 13:05:42;;;;;;;1.17;0.82;;;;;;;23.51;33.58;102238.03;6149075;28;20312;-81
2022/09/22 13:09:09;;;;;;;1.45;1.02;;;;;;;23.65;33.59;102239.94;6139602;28;20235;-83
2022/09/22 13:12:31;;;;;;;0.40;0.40;;;;;;;27.35;27.99;102229.63;6157127;28;20234;-76
2022/09/22 13:15:58;;;;;;;1.70;0.50;;;;;;;30.77;23.55;102222.28;6155418;28;20226;-80
2022/09/22 13:19:19;;;;;;;0.75;0.75;;;;;;;30.47;24.23;102230.66;6132055;28;20583;-80
2022/09/22 13:22:39;;;;;;;4.15;0.85;;;;;;;29.43;24.83;102228.97;6147073;28;20234;-81
2022/09/22 13:26:08;;;;;;;1.65;0.80;;;;;;;23.54;33.49;102237.63;6146476;28;20543;-78
2022/09/22 13:29:30;;;;;;;1.50;0.80;;;;;;;21.15;38.32;102237.59;6154298;28;20238;-79
2022/09/22 13:32:52;;;;;;;1.17;0.80;;;;;;;20.86;39.62;102229.81;6138637;28;20532;-81
2022/09/22 13:36:15;;;;;;;1.25;0.88;;;;;;;20.09;40.55;102227.34;6144877;28;20324;-77
2022/09/22 13:39:39;;;;;;;1.20;0.60;;;;;;;21.02;39.70;102220.75;6146129;28;20953;-82
2022/09/22 13:43:05;;;;;;;5.70;1.27;;;;;;;21.47;39.27;102215.59;6150901;28;20238;-81
2022/09/22 13:46:36;;;;;;;1.40;0.85;;;;;;;26.88;29.33;102200.16;6156623;28;20611;-78
2022/09/22 13:50:03;;;;;;;1.02;0.70;;;;;;;27.64;27.76;102199.50;6142822;28;20234;-79
2022/09/22 13:53:24;;;;;;;3.33;0.60;;;;;;;31.07;23.15;102189.69;6153011;28;20525;-81
2022/09/22 13:56:48;;;;;;;3.35;2.95;;;;;;;30.37;24.07;102188.59;6153979;28;20238;-79
2022/09/22 14:00:23;;;;;;;0.82;0.82;;;;;;;30.58;23.73;102181.66;6145514;28;20332;-74
2022/09/22 14:03:47;;;;;;;1.20;0.68;;;;;;;27.53;25.98;102188.25;6126460;28;20260;-78
2022/09/22 14:07:10;;;;;;;1.05;0.80;;;;;;;22.80;33.69;102189.75;6149465;28;20223;-78
2022/09/22 14:10:31;;;;;;;1.05;0.65;;;;;;;21.52;37.07;102185.75;6153205;28;20458;-78
2022/09/22 14:14:00;;;;;;;0.93;0.45;;;;;;;24.97;32.25;102188.22;6154644;28;20242;-78
2022/09/22 14:17:23;;;;;;;0.82;0.70;;;;;;;25.71;29.63;102178.38;6159412;28;20320;-78
2022/09/22 14:20:46;;;;;;;1.63;0.60;;;;;;;23.93;32.78;102183.13;6145857;28;20230;-79
2022/09/22 14:24:07;;;;;;;1.63;0.70;;;;;;;23.79;33.36;102175.72;6157764;28;20321;-77
2022/09/22 14:27:32;;;;;;;0.80;0.68;;;;;;;26.27;29.76;102171.66;6152070;28;20231;-78
2022/09/22 14:30:53;;;;;;;0.75;0.75;;;;;;;25.23;31.24;102164.44;6151524;28;20234;-77
2022/09/22 14:34:21;;;;;;;2.28;1.20;;;;;;;26.96;29.70;102165.84;6151996;28;20230;-77
2022/09/22 14:37:44;;;;;;;1.10;0.93;;;;;;;24.50;32.22;102170.31;6152751;28;20230;-78
2022/09/22 14:41:21;;;;;;;2.15;0.73;;;;;;;23.13;34.89;102167.47;6152283;28;20238;-77
2022/09/22 14:44:44;;;;;;;0.65;0.63;;;;;;;24.14;33.64;102158.41;6153838;28;20222;-77
2022/09/22 14:48:19;;;;;;;1.77;0.90;;;;;;;24.97;32.21;102161.44;6155833;28;20235;-77
2022/09/22 14:51:46;;;;;;;3.97;0.90;;;;;;;23.74;33.63;102162.53;6154600;28;20230;-79
2022/09/22 14:55:16;;;;;;;2.40;0.93;;;;;;;22.40;35.34;102157.03;6150651;28;20230;-79
2022/09/22 14:58:40;;;;;;;0.93;0.50;;;;;;;21.76;37.62;102149.13;6150061;28;20239;-78
2022/09/22 15:05:43;;;;;;;3.83;1.85;;;;;;;20.17;39.59;102150.69;6160946;28;20262;-79
2022/09/22 15:09:04;;;;;;;1.50;1.40;;;;;;;19.94;40.63;102152.38;6160080;28;20326;-78
2022/09/22 15:12:39;;;;;;;2.22;1.52;;;;;;;19.91;42.02;102142.59;6160214;28;20235;-79
2022/09/22 15:16:01;;;;;;;0.65;0.65;;;;;;;19.97;42.04;102140.19;6158539;28;20230;-79
2022/09/22 15:19:22;;;;;;;1.80;0.70;;;;;;;19.29;43.10;102145.69;6152100;28;20614;-79
2022/09/22 15:22:45;;;;;;;1.13;1.10;;;;;;;19.36;43.23;102141.28;6162718;28;20231;-81
2022/09/22 15:26:06;;;;;;;1.65;1.08;;;;;;;19.27;43.27;102139.53;6161318;28;21024;-80
2022/09/22 15:29:31;;;;;;;2.00;0.60;;;;;;;19.48;42.87;102141.88;6137742;28;20757;-79
2022/09/22 15:32:52;;;;;;;3.00;1.70;;;;;;;19.62;42.54;102149.47;6161290;28;20238;-79
2022/09/22 15:36:14;;;;;;;2.78;1.10;;;;;;;19.66;43.05;102146.25;6160498;28;20234;-78
2022/09/22 15:39:36;;;;;;;0.63;0.63;;;;;;;19.49;43.95;102141.72;6165780;28;20238;-78
2022/09/22 15:42:57;;;;;;;2.03;1.80;;;;;;;19.42;44.18;102140.66;6155193;28;20694;-75
2022/09/22 15:46:28;;;;;;;6.13;0.80;;;;;;;18.96;45.76;102136.38;6149774;28;20318;-78
2022/09/22 15:49:51;;;;;;;0.52;0.52;;;;;;;19.25;46.12;102135.22;6156867;28;20226;-78
2022/09/22 15:53:12;;;;;;;1.13;0.93;;;;;;;19.31;45.80;102138.19;6155284;28;20231;-79
2022/09/22 15:56:33;;;;;;;0.40;0.40;;;;;;;19.26;46.29;102131.47;6154074;28;20805;-78
2022/09/22 15:59:54;;;;;;;0.77;0.60;;;;;;;19.29;46.44;102131.16;6148126;28;20230;-78
2022/09/22 16:03:21;;;;;;;0.77;0.60;;;;;;;19.13;46.80;102121.81;6160473;28;20226;-78
2022/09/22 16:06:47;;;;;;;1.45;0.85;;;;;;;19.28;46.42;102121.22;6159063;28;20230;-80
2022/09/22 16:10:13;;;;;;;1.85;0.65;;;;;;;19.21;46.69;102120.16;6159913;28;20322;-80
2022/09/22 16:13:34;;;;;;;1.50;1.13;;;;;;;19.01;47.37;102111.31;6155732;28;20234;-80